Time;durP1;ratioP1;P1;durP2;ratioP2;P2;SDS_P1;SDS_P2;PMS_P1;PMS_P2;Temp;Humidity;BMP_temperature;BMP_pressure;BME280_temperature;BME280_humidity;BME280_pressure;Samples;Min_cycle;Max_cycle;Signal;HPM_P1;HPM_P2
2021/06/27 00:00:05;;;;;;;18.57;4.92;;;;;;;22.64;86.96;99259.75;1771264;81;21771;-82
2021/06/27 00:03:11;;;;;;;26.60;5.80;;;;;;;22.67;87.33;99272.27;1771347;81;21677;-82
2021/06/27 00:06:16;;;;;;;18.85;6.03;;;;;;;22.66;87.85;99275.62;1769217;81;21835;-82
2021/06/27 00:09:22;;;;;;;16.52;5.37;;;;;;;22.60;88.45;99268.95;1771289;81;21804;-82
2021/06/27 00:12:27;;;;;;;22.45;5.70;;;;;;;22.59;88.86;99262.55;1771334;81;21273;-82
2021/06/27 00:15:45;;;;;;;18.17;5.10;;;;;;;22.59;88.98;99268.12;1769728;81;21196;-82
2021/06/27 00:18:51;;;;;;;23.65;6.22;;;;;;;22.61;89.31;99265.88;1771347;81;21153;-82
2021/06/27 00:21:56;;;;;;;15.32;5.75;;;;;;;22.62;89.90;99270.32;1771399;81;21256;-82
2021/06/27 00:25:02;;;;;;;23.98;6.70;;;;;;;22.63;90.47;99269.23;1771313;81;21677;-82
2021/06/27 00:28:07;;;;;;;21.00;5.45;;;;;;;22.65;90.95;99266.16;1769746;81;21165;-82
2021/06/27 00:31:12;;;;;;;26.05;6.22;;;;;;;22.70;91.59;99271.72;1771248;81;21213;-82
2021/06/27 00:34:18;;;;;;;23.22;5.55;;;;;;;22.68;92.37;99260.86;1771281;81;21700;-82
2021/06/27 00:37:24;;;;;;;17.35;6.22;;;;;;;22.65;92.99;99248.03;1771327;81;21161;-82
2021/06/27 00:40:32;;;;;;;22.27;5.75;;;;;;;22.66;93.66;99246.35;1771402;81;21216;-82
2021/06/27 00:43:38;;;;;;;26.05;5.85;;;;;;;22.69;94.09;99244.41;1771098;81;21804;-82
2021/06/27 00:46:44;;;;;;;27.37;5.30;;;;;;;22.74;94.57;99243.56;1771433;81;21312;-82
2021/06/27 00:49:49;;;;;;;16.65;5.75;;;;;;;22.81;95.12;99246.04;1771253;81;21150;-82
2021/06/27 00:52:53;;;;;;;29.42;7.17;;;;;;;22.85;96.04;99258.30;1771257;81;21169;-82
2021/06/27 00:56:00;;;;;;;18.00;6.72;;;;;;;22.81;96.39;99257.19;1769673;81;21213;-82
2021/06/27 00:59:05;;;;;;;18.20;7.17;;;;;;;22.79;97.54;99263.63;1771285;81;21220;-82
2021/06/27 01:02:11;;;;;;;21.73;7.17;;;;;;;22.75;97.70;99257.77;1771312;81;21693;-82
2021/06/27 01:05:20;;;;;;;27.30;7.78;;;;;;;22.69;97.94;99265.31;1771266;81;21768;-82
2021/06/27 01:08:25;;;;;;;20.82;7.50;;;;;;;22.64;98.19;99270.89;1772976;81;21157;-82
2021/06/27 01:11:31;;;;;;;22.32;8.78;;;;;;;22.62;98.36;99271.72;1774397;81;21181;-82
2021/06/27 01:14:36;;;;;;;31.57;7.78;;;;;;;22.60;98.41;99285.11;1774234;81;21219;-82
2021/06/27 01:17:45;;;;;;;25.40;8.45;;;;;;;22.61;98.62;99278.97;1774304;81;21197;-82
2021/06/27 01:20:53;;;;;;;26.35;8.88;;;;;;;22.59;98.80;99270.91;1752670;81;21343;-82
2021/06/27 01:23:59;;;;;;;27.17;9.73;;;;;;;22.62;99.00;99275.89;1774305;81;21315;-82
2021/06/27 01:27:04;;;;;;;29.37;9.23;;;;;;;22.67;99.20;99271.70;1774301;81;21268;-82
2021/06/27 01:30:12;;;;;;;24.43;8.98;;;;;;;22.76;99.12;99271.98;1774086;81;21204;-82
2021/06/27 01:33:22;;;;;;;29.23;9.38;;;;;;;22.82;98.68;99270.88;1774307;81;21807;-82
2021/06/27 01:36:28;;;;;;;24.43;8.70;;;;;;;22.89;98.40;99275.61;1774306;81;21264;-82
2021/06/27 01:39:33;;;;;;;24.92;9.68;;;;;;;22.97;97.95;99292.89;1774294;81;21260;-82
2021/06/27 01:42:39;;;;;;;25.75;9.48;;;;;;;22.97;97.29;99292.33;1774416;81;21669;-82
2021/06/27 01:45:45;;;;;;;25.60;9.70;;;;;;;22.94;97.19;99289.53;1774340;81;21299;-82
2021/06/27 01:48:50;;;;;;;28.42;8.78;;;;;;;22.94;97.27;99295.11;1774253;81;21692;-82
2021/06/27 01:51:56;;;;;;;34.55;8.45;;;;;;;22.95;97.34;99286.19;1774242;81;21284;-82
2021/06/27 01:55:01;;;;;;;32.15;9.00;;;;;;;22.97;97.27;99312.41;1773966;81;21173;-82
2021/06/27 01:58:06;;;;;;;31.75;10.15;;;;;;;22.96;97.15;99312.98;1774396;81;21271;-82
2021/06/27 02:01:14;;;;;;;36.85;9.43;;;;;;;23.01;96.95;99311.57;1774125;81;21173;-82
2021/06/27 02:04:20;;;;;;;28.77;9.63;;;;;;;23.01;96.81;99308.78;1773810;81;21308;-82
2021/06/27 02:07:26;;;;;;;33.73;9.23;;;;;;;23.05;96.83;99311.25;1771932;81;21339;-82
2021/06/27 02:10:31;;;;;;;21.93;7.97;;;;;;;23.08;96.72;99295.92;1775798;81;21842;-82
2021/06/27 02:13:37;;;;;;;27.52;10.13;;;;;;;23.09;96.71;99285.87;1776396;81;21213;-82
2021/06/27 02:16:43;;;;;;;26.87;9.13;;;;;;;23.08;96.53;99288.39;1773908;80;21208;-82
2021/06/27 02:19:52;;;;;;;23.35;9.90;;;;;;;23.06;96.49;99280.88;1774398;80;21188;-82
2021/06/27 02:22:58;;;;;;;29.32;10.30;;;;;;;23.01;96.47;99278.11;1753718;81;21185;-82
2021/06/27 02:26:03;;;;;;;32.75;12.80;;;;;;;22.90;96.98;99278.67;1774671;81;21311;-82
2021/06/27 02:29:11;;;;;;;31.87;12.47;;;;;;;22.77;97.62;99272.80;1776038;81;21284;-82
2021/06/27 02:32:17;;;;;;;38.45;12.58;;;;;;;22.72;98.58;99276.44;1776966;81;21760;-82
2021/06/27 02:35:23;;;;;;;36.40;14.40;;;;;;;22.68;98.95;99273.41;1776989;81;21200;-82
2021/06/27 02:38:29;;;;;;;26.62;11.57;;;;;;;22.62;99.40;99268.09;1777007;81;21161;-82
2021/06/27 02:41:35;;;;;;;38.08;13.53;;;;;;;22.55;100.00;99271.74;1777094;81;21268;-82
2021/06/27 02:44:41;;;;;;;28.75;13.13;;;;;;;22.51;100.00;99271.46;1776242;81;21334;-82
2021/06/27 02:47:46;;;;;;;41.90;13.85;;;;;;;22.53;100.00;99271.17;1774720;81;21221;-82
2021/06/27 02:50:52;;;;;;;36.25;14.58;;;;;;;22.61;100.00;99278.41;1775990;81;21720;-82
2021/06/27 02:54:00;;;;;;;34.83;13.03;;;;;;;22.74;100.00;99291.51;1775960;81;21591;-82
2021/06/27 02:57:05;;;;;;;32.00;13.83;;;;;;;23.00;100.00;99300.11;1775901;81;21335;-82
2021/06/27 03:00:13;;;;;;;37.17;13.13;;;;;;;23.38;100.00;99313.11;1774424;81;21259;-82
2021/06/27 03:03:19;;;;;;;43.50;13.20;;;;;;;23.70;98.34;99304.35;1774536;81;21331;-82
2021/06/27 03:06:24;;;;;;;25.65;11.30;;;;;;;24.01;96.20;99295.25;1774755;81;21323;-82
2021/06/27 03:09:30;;;;;;;30.45;13.62;;;;;;;24.17;93.10;99298.77;1771720;80;21256;-82
2021/06/27 03:12:36;;;;;;;34.85;14.87;;;;;;;24.10;91.70;99288.49;1769059;81;21264;-82
2021/06/27 03:15:43;;;;;;;37.20;14.25;;;;;;;24.05;91.82;99286.56;1768914;81;21200;-81
2021/06/27 03:18:49;;;;;;;38.10;14.20;;;;;;;24.10;91.90;99293.52;1770278;81;21339;-81
2021/06/27 03:21:55;;;;;;;40.88;14.85;;;;;;;24.19;91.67;99292.34;1770241;81;21816;-82
2021/06/27 03:25:00;;;;;;;35.48;16.37;;;;;;;24.38;91.61;99296.70;1769745;81;21197;-82
2021/06/27 03:28:05;;;;;;;32.35;13.98;;;;;;;24.71;91.10;99288.02;1769980;81;21196;-82
2021/06/27 03:31:10;;;;;;;34.33;15.18;;;;;;;25.11;89.98;99276.16;1770159;81;21292;-82
2021/06/27 03:34:15;;;;;;;34.67;13.85;;;;;;;25.46;87.40;99273.50;1770395;81;21826;-82
2021/06/27 03:37:21;;;;;;;27.27;13.20;;;;;;;25.77;85.90;99270.30;1768804;81;21193;-82
2021/06/27 03:40:26;;;;;;;28.77;12.00;;;;;;;26.00;84.15;99259.59;1770397;81;21184;-82
2021/06/27 03:43:33;;;;;;;25.90;10.68;;;;;;;26.18;82.67;99251.75;1768949;81;21300;-82
2021/06/27 03:46:39;;;;;;;23.00;9.15;;;;;;;26.35;80.78;99250.34;1768881;81;21185;-82
2021/06/27 03:49:45;;;;;;;20.50;7.75;;;;;;;26.44;79.29;99238.72;1770326;81;21193;-81
2021/06/27 03:52:50;;;;;;;19.52;7.55;;;;;;;26.51;78.48;99233.56;1770046;81;21331;-82
2021/06/27 03:55:58;;;;;;;24.87;7.12;;;;;;;26.56;78.03;99236.85;1770363;81;21177;-81
2021/06/27 03:59:03;;;;;;;17.07;6.55;;;;;;;26.64;77.97;99236.98;1770310;81;21307;-82
2021/06/27 04:02:08;;;;;;;20.60;6.90;;;;;;;26.63;76.64;99228.85;1770317;81;21899;-82
2021/06/27 04:05:14;;;;;;;16.20;5.72;;;;;;;26.53;76.87;99223.44;1769894;81;21212;-82
2021/06/27 04:08:20;;;;;;;26.73;6.10;;;;;;;26.53;77.13;99224.27;1770382;81;21861;-81
2021/06/27 04:11:26;;;;;;;21.12;5.03;;;;;;;26.54;76.96;99220.89;1773592;80;21783;-81
2021/06/27 04:14:31;;;;;;;18.05;5.15;;;;;;;26.50;76.75;99208.91;1774765;81;21331;-81
2021/06/27 04:17:36;;;;;;;16.57;5.47;;;;;;;26.54;77.09;99206.87;1775958;81;21949;-82
2021/06/27 04:20:41;;;;;;;21.07;5.50;;;;;;;26.63;77.46;99203.07;1776069;81;21707;-82
2021/06/27 04:23:48;;;;;;;13.70;4.10;;;;;;;26.68;77.63;99204.38;1775440;81;21193;-81
2021/06/27 04:26:54;;;;;;;14.65;3.98;;;;;;;26.71;76.95;99209.34;1775410;81;21157;-81
2021/06/27 04:29:59;;;;;;;18.50;4.37;;;;;;;26.73;75.72;99201.47;1777045;81;21197;-82
2021/06/27 04:33:15;;;;;;;13.22;3.80;;;;;;;26.93;75.03;99194.63;1877223;76;22217;-81
2021/06/27 04:36:23;;;;;;;12.60;4.35;;;;;;;27.04;74.98;99202.83;1851587;77;21685;-80
2021/06/27 04:39:29;;;;;;;14.13;4.50;;;;;;;27.16;74.03;99198.39;1759823;80;21188;-80
2021/06/27 04:42:35;;;;;;;17.75;4.92;;;;;;;27.30;72.98;99209.61;1782590;80;21259;-80
2021/06/27 04:45:40;;;;;;;13.18;5.05;;;;;;;27.47;71.66;99206.97;1782607;80;21268;-80
2021/06/27 04:48:45;;;;;;;19.92;5.92;;;;;;;27.68;70.77;99213.55;1782558;80;21149;-80
2021/06/27 04:51:50;;;;;;;19.30;4.65;;;;;;;27.80;70.43;99220.86;1782318;80;21307;-80
2021/06/27 04:54:55;;;;;;;16.27;6.40;;;;;;;27.88;69.22;99217.88;1782592;80;21255;-81
2021/06/27 04:58:00;;;;;;;17.57;6.47;;;;;;;27.80;68.66;99220.86;1782567;80;21728;-81
2021/06/27 05:01:05;;;;;;;20.62;7.55;;;;;;;27.80;68.66;99220.86;1782536;80;21259;-81
2021/06/27 05:04:11;;;;;;;21.68;8.38;;;;;;;27.60;68.64;99231.97;1782571;80;21196;-81
2021/06/27 05:07:16;;;;;;;19.30;7.92;;;;;;;27.19;69.53;99230.02;1751685;82;21320;-81
2021/06/27 05:10:20;;;;;;;29.92;8.93;;;;;;;26.96;70.68;99232.43;1751771;82;21188;-81
2021/06/27 05:13:26;;;;;;;33.73;13.25;;;;;;;26.95;71.97;99231.60;1785570;80;21188;-81
2021/06/27 05:16:32;;;;;;;33.55;12.13;;;;;;;27.07;72.10;99237.30;1755104;82;21268;-81
2021/06/27 05:19:36;;;;;;;26.68;9.80;;;;;;;27.27;71.68;99242.51;1755118;82;21807;-81
2021/06/27 05:22:42;;;;;;;26.75;9.23;;;;;;;27.47;71.08;99244.05;1755107;82;21271;-81
2021/06/27 05:25:47;;;;;;;33.65;12.90;;;;;;;27.67;70.08;99235.77;1785603;80;21192;-81
2021/06/27 05:28:53;;;;;;;26.00;12.37;;;;;;;27.82;69.75;99239.66;1785601;80;21149;-81
2021/06/27 05:31:58;;;;;;;27.55;11.50;;;;;;;27.88;68.30;99240.36;1783693;80;21236;-81
2021/06/27 05:35:04;;;;;;;24.15;10.45;;;;;;;27.93;68.32;99238.83;1777591;81;21795;-81
2021/06/27 05:38:09;;;;;;;22.27;8.55;;;;;;;27.92;68.33;99246.44;1777612;81;21259;-81
2021/06/27 05:41:14;;;;;;;26.35;9.40;;;;;;;27.88;68.81;99244.00;1777705;81;21775;-81
2021/06/27 05:44:20;;;;;;;15.93;7.37;;;;;;;27.88;68.81;99244.00;1777208;81;21305;-81
2021/06/27 05:47:24;;;;;;;21.97;7.62;;;;;;;27.98;68.92;99242.92;1777016;81;21712;-81
2021/06/27 05:50:30;;;;;;;18.27;7.17;;;;;;;28.11;68.31;99250.48;1777065;81;21712;-80
2021/06/27 05:53:36;;;;;;;20.85;7.62;;;;;;;28.37;67.65;99254.09;1777036;81;21292;-81
2021/06/27 05:56:41;;;;;;;18.65;6.80;;;;;;;28.37;67.65;99254.09;1777058;81;21303;-81
2021/06/27 05:59:48;;;;;;;18.42;5.90;;;;;;;28.44;66.81;99247.45;1777070;81;21157;-81
2021/06/27 06:02:55;;;;;;;15.18;5.58;;;;;;;28.44;66.44;99246.87;1776669;81;21335;-80
2021/06/27 06:06:01;;;;;;;11.70;4.90;;;;;;;28.44;66.44;99246.87;1777026;81;21783;-81
2021/06/27 06:09:07;;;;;;;19.52;4.90;;;;;;;28.50;66.45;99262.46;1775632;81;21208;-81
2021/06/27 06:12:12;;;;;;;12.23;4.62;;;;;;;28.50;66.45;99262.46;1777014;81;21160;-81
2021/06/27 06:15:20;;;;;;;22.40;3.98;;;;;;;28.62;66.62;99273.14;1777056;81;21700;-81
2021/06/27 06:18:25;;;;;;;13.53;3.98;;;;;;;28.76;65.89;99262.64;1776909;81;21848;-81
2021/06/27 06:21:31;;;;;;;17.85;4.03;;;;;;;28.96;65.36;99257.64;1777046;81;21183;-81
2021/06/27 06:24:36;;;;;;;16.97;4.10;;;;;;;28.96;65.36;99257.64;1776926;81;21312;-81
2021/06/27 06:27:40;;;;;;;14.60;4.78;;;;;;;29.01;65.12;99254.68;1777042;81;21736;-81
2021/06/27 06:30:45;;;;;;;18.65;4.50;;;;;;;29.01;65.12;99254.68;1777049;81;21205;-81
2021/06/27 06:33:51;;;;;;;21.30;4.83;;;;;;;29.10;64.83;99255.55;1775074;81;21735;-81
2021/06/27 06:36:58;;;;;;;20.97;4.47;;;;;;;29.29;65.13;99257.53;1776997;81;21752;-81
2021/06/27 06:40:02;;;;;;;22.02;4.50;;;;;;;29.52;64.75;99252.63;1777042;81;21141;-81
2021/06/27 06:43:09;;;;;;;10.08;3.70;;;;;;;29.78;64.01;99254.14;1776944;81;21268;-81
2021/06/27 06:46:14;;;;;;;14.35;4.08;;;;;;;29.87;62.40;99254.70;1777044;81;21245;-81
2021/06/27 06:49:21;;;;;;;14.65;3.98;;;;;;;29.96;62.48;99263.41;1776956;81;21181;-81
2021/06/27 06:52:26;;;;;;;11.83;4.20;;;;;;;30.00;62.59;99260.77;1777011;81;21199;-81
2021/06/27 06:55:32;;;;;;;13.00;3.42;;;;;;;30.15;62.45;99261.71;1776963;81;21256;-81
2021/06/27 06:58:38;;;;;;;8.68;3.80;;;;;;;30.15;61.93;99254.66;1777066;81;21145;-81
2021/06/27 07:01:42;;;;;;;16.40;4.12;;;;;;;30.24;60.80;99263.13;1777020;81;21697;-80
2021/06/27 07:04:48;;;;;;;11.20;3.90;;;;;;;30.20;60.91;99262.95;1776025;81;21311;-81
2021/06/27 07:07:53;;;;;;;13.40;4.05;;;;;;;30.21;61.18;99271.69;1777016;81;22055;-81
2021/06/27 07:11:00;;;;;;;13.30;3.87;;;;;;;30.29;60.58;99272.83;1775493;81;21164;-81
2021/06/27 07:14:05;;;;;;;16.10;4.47;;;;;;;30.39;59.96;99271.07;1776875;81;21189;-81
2021/06/27 07:17:12;;;;;;;13.28;4.03;;;;;;;30.46;59.67;99270.59;1775421;81;21157;-81
2021/06/27 07:20:17;;;;;;;10.58;3.70;;;;;;;30.47;59.48;99271.66;1776971;81;21771;-81
2021/06/27 07:23:22;;;;;;;15.83;4.17;;;;;;;30.49;59.76;99274.16;1777040;81;21157;-81
2021/06/27 07:26:28;;;;;;;16.90;3.70;;;;;;;30.45;59.52;99270.34;1777026;81;21137;-81
2021/06/27 07:29:34;;;;;;;14.63;3.92;;;;;;;30.32;59.25;99272.76;1776975;81;21165;-81
2021/06/27 07:32:40;;;;;;;12.15;3.92;;;;;;;30.21;59.01;99277.33;1777029;81;21193;-81
2021/06/27 07:35:45;;;;;;;17.23;3.37;;;;;;;30.19;58.62;99275.98;1774737;81;21292;-81
2021/06/27 07:38:51;;;;;;;14.60;4.40;;;;;;;30.13;58.91;99278.15;1777015;81;21688;-81
2021/06/27 07:41:57;;;;;;;18.73;4.00;;;;;;;29.97;59.30;99286.80;1776114;81;21826;-81
2021/06/27 07:45:02;;;;;;;16.35;4.65;;;;;;;29.93;60.12;99290.05;1775014;81;21862;-81
2021/06/27 07:48:09;;;;;;;9.48;4.40;;;;;;;30.00;60.38;99286.97;1775489;81;21910;-81
2021/06/27 07:51:15;;;;;;;8.03;3.42;;;;;;;29.99;60.23;99284.48;1774119;81;21386;-81
2021/06/27 07:54:20;;;;;;;10.70;3.62;;;;;;;30.07;60.52;99286.50;1775384;81;21415;-81
2021/06/27 07:57:26;;;;;;;12.35;3.85;;;;;;;30.44;61.28;99294.05;1777094;81;21197;-81
2021/06/27 08:00:32;;;;;;;12.63;3.80;;;;;;;30.84;60.16;99295.29;1777002;81;21145;-81
2021/06/27 08:03:38;;;;;;;14.60;4.17;;;;;;;31.10;58.64;99298.88;1776919;81;21153;-81
2021/06/27 08:06:43;;;;;;;19.40;3.70;;;;;;;31.24;57.82;99302.31;1776832;81;21220;-81
2021/06/27 08:09:48;;;;;;;12.35;3.67;;;;;;;31.33;57.24;99304.28;1776991;81;21157;-81
2021/06/27 08:12:54;;;;;;;21.87;4.03;;;;;;;31.22;56.17;99300.39;1776991;81;21204;-81
2021/06/27 08:16:00;;;;;;;20.00;3.92;;;;;;;31.08;56.63;99305.43;1776966;81;21185;-81
2021/06/27 08:19:06;;;;;;;16.17;4.03;;;;;;;31.02;55.57;99306.79;1776985;81;21161;-81
2021/06/27 08:22:05;;;;;;;12.95;4.03;;;;;;;31.16;54.42;99308.81;1777135;81;21165;-81
2021/06/27 08:25:11;;;;;;;22.77;4.40;;;;;;;31.36;53.82;99315.75;1776964;81;21141;-81
2021/06/27 08:28:16;;;;;;;16.52;3.80;;;;;;;31.46;53.29;99311.71;1759608;81;21152;-81
2021/06/27 08:31:22;;;;;;;12.35;3.80;;;;;;;31.53;52.70;99319.09;1771633;81;21268;-81
2021/06/27 08:34:27;;;;;;;15.35;4.40;;;;;;;31.59;53.42;99314.89;1776116;81;21204;-81
2021/06/27 08:37:32;;;;;;;13.13;3.67;;;;;;;31.54;53.42;99310.85;1773070;80;21911;-81
2021/06/27 08:40:38;;;;;;;18.32;3.60;;;;;;;31.64;53.41;99301.98;1774121;81;21279;-81
2021/06/27 08:43:43;;;;;;;12.10;4.17;;;;;;;31.68;53.21;99300.72;1774324;81;21247;-81
2021/06/27 08:46:51;;;;;;;10.68;3.98;;;;;;;31.76;54.56;99295.58;1774571;81;21275;-81
2021/06/27 08:49:58;;;;;;;21.20;4.85;;;;;;;31.80;53.04;99304.45;1774812;81;21334;-81
2021/06/27 08:53:04;;;;;;;14.38;4.53;;;;;;;31.85;52.86;99303.45;1774398;81;21212;-81
2021/06/27 08:56:09;;;;;;;21.30;4.72;;;;;;;31.95;53.44;99303.67;1774636;81;21341;-81
2021/06/27 08:59:15;;;;;;;12.37;4.58;;;;;;;32.13;53.04;99292.45;1773018;81;21205;-81
2021/06/27 09:02:20;;;;;;;15.88;4.55;;;;;;;32.25;53.36;99294.53;1774859;81;21259;-81
2021/06/27 09:05:25;;;;;;;31.85;5.17;;;;;;;32.41;53.45;99287.68;1774734;81;21822;-81
2021/06/27 09:08:30;;;;;;;11.05;4.78;;;;;;;32.60;53.11;99292.23;1774824;81;21267;-81
2021/06/27 09:11:35;;;;;;;13.35;4.70;;;;;;;32.71;52.81;99297.73;1774788;81;21263;-81
2021/06/27 09:14:44;;;;;;;13.38;4.83;;;;;;;32.81;51.84;99301.53;1774767;81;21252;-81
2021/06/27 09:17:51;;;;;;;18.85;4.70;;;;;;;32.74;52.70;99299.02;1774820;81;21259;-81
2021/06/27 09:21:01;;;;;;;15.05;5.08;;;;;;;32.58;53.46;99291.77;1774796;81;21315;-81
2021/06/27 09:24:06;;;;;;;16.57;4.45;;;;;;;32.47;53.03;99294.80;1774006;81;21534;-81
2021/06/27 09:27:30;;;;;;;10.00;4.60;;;;;;;32.35;53.95;99296.94;1773876;81;21184;-81
2021/06/27 09:30:38;;;;;;;14.07;5.08;;;;;;;32.25;53.74;99301.02;1773826;81;21296;-81
2021/06/27 09:33:43;;;;;;;14.00;5.05;;;;;;;32.06;53.72;99300.67;1773868;81;21351;-81
2021/06/27 09:36:55;;;;;;;17.65;5.33;;;;;;;31.94;53.52;99305.64;1771283;81;21803;-81
2021/06/27 09:40:05;;;;;;;14.20;4.87;;;;;;;31.84;54.44;99303.22;1774918;81;21161;-81
2021/06/27 09:43:17;;;;;;;18.90;5.90;;;;;;;31.71;55.83;99301.44;1775137;81;21257;-81
2021/06/27 09:46:23;;;;;;;13.70;6.20;;;;;;;31.53;57.17;99295.89;1774871;81;21799;-81
2021/06/27 09:49:38;;;;;;;17.57;6.90;;;;;;;31.40;57.12;99293.30;1774782;81;21827;-81
2021/06/27 09:52:46;;;;;;;25.57;7.55;;;;;;;31.48;59.29;99291.85;1774922;81;21288;-81
2021/06/27 09:56:06;;;;;;;23.32;8.05;;;;;;;31.69;57.86;99299.55;1774697;81;21300;-81
2021/06/27 09:59:13;;;;;;;20.82;7.80;;;;;;;31.95;57.36;99308.73;1774907;81;21315;-81
2021/06/27 10:02:19;;;;;;;20.35;7.70;;;;;;;32.11;56.64;99311.77;1774662;81;21311;-81
2021/06/27 10:05:36;;;;;;;15.65;7.25;;;;;;;32.25;54.99;99309.50;1774911;81;21177;-81
2021/06/27 10:08:41;;;;;;;19.32;6.75;;;;;;;32.35;54.43;99305.42;1774856;81;21830;-81
2021/06/27 10:12:02;;;;;;;17.32;6.92;;;;;;;32.39;54.96;99302.77;1774965;81;21283;-81
2021/06/27 10:15:09;;;;;;;19.87;7.47;;;;;;;32.44;54.10;99297.73;1774912;81;21271;-81
2021/06/27 10:18:16;;;;;;;24.87;7.40;;;;;;;32.49;54.41;99292.44;1774872;81;21259;-81
2021/06/27 10:21:22;;;;;;;18.32;7.22;;;;;;;32.60;55.90;99289.41;1774923;81;21788;-81
2021/06/27 10:24:27;;;;;;;16.48;7.35;;;;;;;32.68;53.64;99289.09;1774876;81;21264;-81
2021/06/27 10:27:33;;;;;;;26.40;8.20;;;;;;;32.59;52.11;99281.28;1774884;81;21302;-81
2021/06/27 10:30:42;;;;;;;23.18;9.55;;;;;;;32.56;52.71;99280.81;1775014;81;21176;-81
2021/06/27 10:33:49;;;;;;;15.40;7.53;;;;;;;32.53;53.39;99279.25;1755026;81;21196;-81
2021/06/27 10:37:00;;;;;;;30.37;8.70;;;;;;;32.57;53.40;99277.39;1774715;81;21782;-81
2021/06/27 10:40:14;;;;;;;22.80;8.28;;;;;;;32.62;53.38;99274.34;1769830;81;21872;-81
2021/06/27 10:43:20;;;;;;;28.95;8.10;;;;;;;32.69;53.73;99273.17;1769721;81;21161;-81
2021/06/27 10:46:27;;;;;;;23.00;8.60;;;;;;;32.71;53.88;99272.84;1771273;81;21193;-81
2021/06/27 10:49:44;;;;;;;20.45;7.92;;;;;;;32.75;52.92;99278.05;1771287;81;21205;-81
2021/06/27 10:53:05;;;;;;;19.82;7.40;;;;;;;32.84;52.10;99277.34;1769966;81;21768;-81
2021/06/27 10:56:11;;;;;;;14.80;6.72;;;;;;;32.92;51.92;99264.30;1771310;81;21201;-81
2021/06/27 10:59:18;;;;;;;17.62;7.28;;;;;;;32.89;52.33;99260.71;1771434;81;21257;-81
2021/06/27 11:02:41;;;;;;;15.20;6.85;;;;;;;32.96;52.77;99249.68;1729162;81;21303;-81
2021/06/27 11:05:48;;;;;;;15.18;6.40;;;;;;;32.90;52.02;99251.06;1769810;81;21189;-81
2021/06/27 11:08:58;;;;;;;23.07;7.33;;;;;;;32.85;52.70;99242.80;1771142;81;21189;-81
2021/06/27 11:12:04;;;;;;;16.12;7.55;;;;;;;32.64;52.22;99225.86;1771367;81;21780;-81
2021/06/27 11:15:22;;;;;;;20.68;7.08;;;;;;;32.62;52.36;99229.64;1771323;81;21193;-81
2021/06/27 11:18:43;;;;;;;12.53;6.35;;;;;;;32.54;51.04;99225.71;1771291;81;21800;-81
2021/06/27 11:21:48;;;;;;;16.62;6.55;;;;;;;32.47;51.44;99220.63;1770586;81;21335;-81
2021/06/27 11:24:54;;;;;;;18.75;7.28;;;;;;;32.54;51.63;99216.63;1768904;81;21216;-81
2021/06/27 11:27:59;;;;;;;19.05;7.22;;;;;;;32.66;51.46;99221.52;1771325;81;21252;-81
2021/06/27 11:31:33;;;;;;;15.25;7.85;;;;;;;32.65;51.82;99215.59;1770520;81;21189;-81
2021/06/27 11:34:38;;;;;;;14.45;7.70;;;;;;;32.44;51.69;99216.25;1771292;81;21679;-81
2021/06/27 11:37:47;;;;;;;14.45;7.85;;;;;;;32.10;53.15;99222.45;1771284;81;21291;-81
2021/06/27 11:40:58;;;;;;;20.37;8.65;;;;;;;31.96;53.43;99227.56;1773496;81;21287;-81
2021/06/27 11:44:06;;;;;;;27.62;8.20;;;;;;;32.01;52.07;99233.83;1777049;81;21133;-81
2021/06/27 11:47:29;;;;;;;17.10;7.55;;;;;;;32.07;52.70;99224.55;1777070;81;21157;-81
2021/06/27 11:50:36;;;;;;;17.70;8.03;;;;;;;32.08;52.10;99221.95;1777142;81;21169;-81
2021/06/27 11:53:41;;;;;;;18.57;8.15;;;;;;;31.73;51.40;99219.38;1776936;81;21197;-81
2021/06/27 11:57:09;;;;;;;22.82;8.15;;;;;;;31.53;53.26;99215.95;1777070;81;21748;-81
2021/06/27 12:00:14;;;;;;;18.92;8.05;;;;;;;31.48;53.84;99211.91;1776992;81;21204;-81
2021/06/27 12:03:24;;;;;;;18.95;8.53;;;;;;;31.49;55.01;99213.56;1776837;81;21163;-81
2021/06/27 12:06:29;;;;;;;19.48;8.65;;;;;;;31.53;55.02;99209.71;1777036;81;21213;-81
2021/06/27 12:09:43;;;;;;;20.40;8.30;;;;;;;31.43;54.07;99214.91;1775805;81;21941;-81
2021/06/27 12:12:56;;;;;;;18.40;7.95;;;;;;;31.25;53.91;99216.99;1776977;81;21173;-81
2021/06/27 12:16:04;;;;;;;15.45;8.65;;;;;;;30.99;54.45;99208.05;1776702;81;21803;-81
2021/06/27 12:19:12;;;;;;;16.73;8.58;;;;;;;30.76;54.52;99208.05;1777101;81;21692;-81
2021/06/27 12:22:18;;;;;;;19.02;8.83;;;;;;;30.50;55.56;99199.64;1777026;81;21152;-81
2021/06/27 12:25:23;;;;;;;19.70;9.13;;;;;;;30.27;56.24;99192.79;1777048;81;21279;-81
2021/06/27 12:28:50;;;;;;;25.17;10.58;;;;;;;30.14;56.70;99174.64;1776494;81;21188;-81
2021/06/27 12:31:53;;;;;;;23.20;9.43;;;;;;;30.07;56.82;99185.00;1776798;81;21319;-81
2021/06/27 12:34:58;;;;;;;18.73;9.38;;;;;;;30.01;56.45;99206.05;1776022;81;21338;-81
2021/06/27 12:38:05;;;;;;;16.20;4.58;;;;;;;29.91;58.15;99224.12;1752855;81;21213;-82
2021/06/27 12:41:11;;;;;;;9.80;4.20;;;;;;;29.28;53.61;99248.01;1770622;81;21320;-82
2021/06/27 12:44:19;;;;;;;14.13;5.53;;;;;;;28.23;55.61;99252.16;1753543;81;21184;-82
2021/06/27 12:47:37;;;;;;;11.20;5.62;;;;;;;27.09;58.09;99234.45;1740109;82;21747;-82
2021/06/27 12:50:46;;;;;;;16.23;5.90;;;;;;;25.91;61.93;99227.23;1714613;83;21280;-83
2021/06/27 12:54:07;;;;;;;14.50;4.57;;;;;;;24.97;65.64;99228.44;1750889;81;21276;-83
2021/06/27 12:57:28;;;;;;;7.05;3.58;;;;;;;24.20;68.75;99236.16;1722623;82;21401;-83
2021/06/27 13:00:42;;;;;;;10.35;4.45;;;;;;;23.30;70.80;99252.34;1718250;82;21246;-83
2021/06/27 13:04:05;;;;;;;13.13;5.60;;;;;;;22.78;71.70;99271.72;1748169;82;21306;-82
2021/06/27 13:10:13;;;;;;;20.85;5.40;;;;;;;22.52;75.52;99351.14;1836269;76;28112;-81
2021/06/27 13:13:18;;;;;;;7.65;3.47;;;;;;;22.52;77.46;99372.05;1711136;83;21168;-81
2021/06/27 13:16:26;;;;;;;12.20;4.78;;;;;;;22.28;77.41;99369.52;1785398;80;21315;-79
2021/06/27 13:19:31;;;;;;;10.85;5.15;;;;;;;21.78;78.53;99359.87;1784222;79;21347;-80
2021/06/27 13:22:36;;;;;;;16.52;4.80;;;;;;;20.98;79.23;99350.25;1785413;80;21267;-81
2021/06/27 13:26:04;;;;;;;19.07;6.45;;;;;;;20.36;81.74;99338.34;1784031;79;21303;-80
2021/06/27 13:29:09;;;;;;;10.58;7.75;;;;;;;20.14;83.97;99329.55;1784927;79;21326;-80
2021/06/27 14:16:03;;;;;;;127.47;116.67;;;;;;;19.98;93.35;99345.74;1857315;76;22759;-79
2021/06/27 14:19:09;;;;;;;32.15;28.73;;;;;;;19.97;93.49;99343.23;1750978;82;21271;-82
2021/06/27 14:22:15;;;;;;;20.77;15.58;;;;;;;19.97;94.62;99335.75;1767189;81;21344;-80
2021/06/27 14:25:22;;;;;;;20.25;9.65;;;;;;;20.00;95.28;99343.56;1749698;82;21317;-79
2021/06/27 14:28:30;;;;;;;25.97;8.70;;;;;;;20.07;95.99;99336.40;1750764;82;21295;-79
2021/06/27 14:31:37;;;;;;;15.25;6.55;;;;;;;20.14;96.47;99336.48;1751024;82;21184;-79
